createdAt,value
2022-09-25T00:04:00.463Z,13.10
2022-09-25T00:09:00.397Z,13.70
2022-09-25T00:14:00.315Z,13.50
2022-09-25T00:19:00.253Z,13.10
2022-09-25T00:24:00.178Z,12.90
2022-09-25T00:29:00.115Z,12.80
2022-09-25T00:34:00.138Z,11.70
2022-09-25T00:38:59.981Z,11.80
2022-09-25T00:44:00.077Z,10.90
2022-09-25T00:48:59.842Z,11.20
2022-09-25T00:53:59.777Z,11.40
2022-09-25T00:58:59.726Z,11.30
2022-09-25T01:03:59.696Z,11.30
2022-09-25T01:08:59.603Z,11.10
2022-09-25T01:13:59.527Z,11.30
2022-09-25T01:18:59.466Z,11.90
2022-09-25T01:23:59.425Z,11.50
2022-09-25T01:28:59.352Z,10.70
2022-09-25T01:33:59.268Z,10.50
2022-09-25T01:38:59.241Z,9.60
2022-09-25T01:43:59.133Z,9.90
2022-09-25T01:48:59.222Z,9.80
2022-09-25T01:53:58.992Z,10.00
2022-09-25T01:58:58.926Z,10.40
2022-09-25T02:03:58.881Z,9.70
2022-09-25T02:08:58.795Z,9.70
2022-09-25T02:13:58.747Z,10.40
2022-09-25T02:18:58.692Z,10.40
2022-09-25T02:23:58.630Z,9.90
2022-09-25T02:28:58.540Z,9.40
2022-09-25T02:33:58.480Z,10.20
2022-09-25T02:38:58.436Z,8.80
2022-09-25T02:43:58.337Z,8.70
2022-09-25T02:48:58.311Z,9.10
2022-09-25T02:53:58.385Z,9.10
2022-09-25T02:58:58.216Z,8.70
2022-09-25T03:03:58.085Z,8.20
2022-09-25T03:08:58.023Z,8.50
2022-09-25T03:13:57.955Z,7.90
2022-09-25T03:18:57.891Z,8.50
2022-09-25T03:23:57.825Z,8.20
2022-09-25T03:28:57.743Z,8.30
2022-09-25T03:33:57.700Z,8.10
2022-09-25T03:38:57.626Z,8.00
2022-09-25T03:43:57.555Z,8.50
2022-09-25T03:48:57.497Z,8.00
2022-09-25T03:53:57.448Z,7.90
2022-09-25T03:58:57.387Z,8.70
2022-09-25T04:03:57.268Z,8.30
2022-09-25T04:08:57.216Z,8.60
2022-09-25T04:13:57.189Z,8.50
2022-09-25T04:18:57.247Z,8.30
2022-09-25T04:23:57.020Z,8.30
2022-09-25T04:28:56.954Z,8.30
2022-09-25T04:33:56.885Z,8.10
2022-09-25T04:38:56.808Z,8.40
2022-09-25T04:43:56.743Z,8.10
2022-09-25T04:48:56.701Z,9.20
2022-09-25T04:53:56.616Z,8.50
2022-09-25T04:58:56.555Z,8.40
2022-09-25T05:03:56.686Z,8.50
2022-09-25T05:08:56.414Z,8.60
2022-09-25T05:13:56.350Z,8.40
2022-09-25T05:18:56.274Z,8.30
2022-09-25T05:23:56.235Z,8.50
2022-09-25T05:28:56.158Z,8.20
2022-09-25T05:33:56.092Z,8.80
2022-09-25T05:38:56.017Z,8.10
2022-09-25T05:43:55.988Z,8.50
2022-09-25T05:48:55.879Z,8.20
2022-09-25T05:53:55.868Z,8.00
2022-09-25T05:58:55.782Z,8.30
2022-09-25T06:03:55.677Z,8.00
2022-09-25T06:08:55.645Z,7.70
2022-09-25T06:13:55.567Z,8.00
2022-09-25T06:18:55.492Z,7.60
2022-09-25T06:23:55.474Z,7.80
2022-09-25T06:28:58.639Z,7.20
2022-09-25T06:33:56.296Z,7.50
2022-09-25T06:38:55.229Z,7.70
2022-09-25T06:43:55.149Z,7.10
2022-09-25T06:48:55.116Z,7.60
2022-09-25T06:53:55.014Z,7.70
2022-09-25T06:58:54.951Z,7.60
2022-09-25T07:03:54.890Z,19.30
2022-09-25T07:08:54.854Z,30.30
2022-09-25T07:13:55.293Z,14.00
2022-09-25T07:18:54.699Z,7.40
2022-09-25T07:23:54.657Z,8.00
2022-09-25T07:28:55.297Z,8.90
2022-09-25T07:33:54.502Z,8.10
2022-09-25T07:38:54.503Z,8.10
2022-09-25T07:44:06.281Z,7.30
2022-09-25T07:48:55.336Z,7.60
2022-09-25T07:53:54.240Z,8.80
2022-09-25T07:58:55.369Z,8.90
2022-09-25T08:03:54.135Z,10.00
2022-09-25T08:08:54.168Z,8.50
2022-09-25T08:13:54.096Z,8.20
2022-09-25T08:18:54.168Z,6.90
2022-09-25T08:23:53.876Z,6.60
2022-09-25T08:28:54.170Z,6.10
2022-09-25T08:33:53.802Z,5.90
2022-09-25T08:38:53.838Z,5.60
2022-09-25T08:43:53.642Z,6.90
2022-09-25T08:48:53.556Z,6.20
2022-09-25T08:53:53.465Z,5.30
2022-09-25T08:58:53.421Z,5.60
2022-09-25T09:03:53.353Z,6.60
2022-09-25T09:08:53.257Z,6.40
2022-09-25T09:13:53.176Z,6.90
2022-09-25T09:18:53.151Z,5.50
2022-09-25T09:23:53.051Z,7.60
2022-09-25T09:28:53.083Z,8.00
2022-09-25T09:33:53.130Z,8.00
2022-09-25T09:38:52.997Z,6.20
2022-09-25T09:43:57.328Z,5.90
2022-09-25T09:48:53.896Z,6.80
2022-09-25T09:53:52.962Z,6.70
2022-09-25T09:58:52.643Z,7.80
2022-09-25T10:03:52.674Z,6.60
2022-09-25T10:08:52.543Z,6.40
2022-09-25T10:13:52.944Z,7.90
2022-09-25T10:18:52.393Z,7.90
2022-09-25T10:23:52.312Z,7.00
2022-09-25T10:28:52.190Z,6.60
2022-09-25T10:33:53.365Z,6.20
2022-09-25T10:38:59.616Z,6.20
2022-09-25T10:43:53.087Z,6.30
2022-09-25T10:48:52.048Z,5.40
2022-09-25T10:53:51.874Z,4.30
2022-09-25T10:58:51.809Z,3.70
2022-09-25T11:03:51.800Z,4.50
2022-09-25T11:08:52.134Z,4.60
2022-09-25T11:13:51.623Z,2.80
2022-09-25T11:18:51.710Z,3.10
2022-09-25T11:23:51.614Z,2.90
2022-09-25T11:28:51.453Z,2.90
2022-09-25T11:33:51.466Z,2.70
2022-09-25T11:38:51.525Z,2.70
2022-09-25T11:43:55.609Z,2.80
2022-09-25T11:48:52.203Z,2.40
2022-09-25T11:53:53.174Z,3.20
2022-09-25T11:58:51.240Z,3.00
2022-09-25T12:03:51.267Z,2.50
2022-09-25T12:08:51.445Z,2.40
2022-09-25T12:13:50.829Z,2.50
2022-09-25T12:18:50.933Z,2.70
2022-09-25T12:23:50.767Z,2.40
2022-09-25T12:28:50.651Z,2.90
2022-09-25T12:33:52.345Z,2.70
2022-09-25T12:38:50.563Z,3.30
2022-09-25T12:43:50.519Z,2.70
2022-09-25T12:48:50.409Z,2.90
2022-09-25T12:53:50.441Z,3.10
2022-09-25T12:58:50.341Z,3.90
2022-09-25T13:03:50.163Z,3.60
2022-09-25T13:08:50.167Z,2.90
2022-09-25T13:13:50.052Z,4.10
2022-09-25T13:18:50.034Z,3.60
2022-09-25T13:23:50.075Z,3.70
2022-09-25T13:28:50.117Z,3.70
2022-09-25T13:33:50.311Z,3.40
2022-09-25T13:38:49.746Z,3.00
2022-09-25T13:43:49.853Z,5.00
2022-09-25T13:48:56.101Z,4.50
2022-09-25T13:54:02.650Z,3.80
2022-09-25T13:58:49.722Z,3.80
2022-09-25T14:03:50.492Z,3.40
2022-09-25T14:08:49.521Z,3.80
2022-09-25T14:13:49.368Z,4.40
2022-09-25T14:18:52.756Z,4.20
2022-09-25T14:23:50.160Z,3.60
2022-09-25T14:28:49.042Z,3.70
2022-09-25T14:33:49.023Z,3.70
2022-09-25T14:38:48.940Z,4.10
2022-09-25T14:43:48.871Z,4.10
2022-09-25T14:48:48.841Z,4.30
2022-09-25T14:53:48.755Z,3.80
2022-09-25T14:58:48.867Z,3.80
2022-09-25T15:03:48.581Z,3.90
2022-09-25T15:08:48.888Z,3.60
2022-09-25T15:13:48.458Z,3.90
2022-09-25T15:18:48.377Z,3.70
2022-09-25T15:23:48.319Z,3.40
2022-09-25T15:28:48.669Z,3.70
2022-09-25T15:33:48.187Z,4.00
2022-09-25T15:38:48.162Z,3.70
2022-09-25T15:43:48.149Z,4.10
2022-09-25T15:48:48.051Z,3.90
2022-09-25T15:53:47.981Z,4.40
2022-09-25T15:58:47.939Z,3.40
2022-09-25T16:03:48.073Z,4.50
2022-09-25T16:08:47.811Z,4.40
2022-09-25T16:13:47.681Z,4.50
2022-09-25T16:18:47.607Z,4.60
2022-09-25T16:23:50.857Z,4.50
2022-09-25T16:28:48.497Z,4.80
2022-09-25T16:33:47.444Z,5.00
2022-09-25T16:38:47.316Z,5.10
2022-09-25T16:43:47.353Z,5.10
2022-09-25T16:48:47.221Z,4.60
2022-09-25T16:53:47.266Z,5.60
2022-09-25T16:58:47.137Z,5.40
2022-09-25T17:03:46.988Z,6.30
2022-09-25T17:08:47.205Z,5.30
2022-09-25T17:13:47.059Z,6.50
2022-09-25T17:18:46.892Z,7.30
2022-09-25T17:23:46.766Z,7.80
2022-09-25T17:28:46.659Z,8.60
2022-09-25T17:33:46.643Z,9.00
2022-09-25T17:38:46.559Z,8.50
2022-09-25T17:43:46.450Z,8.90
2022-09-25T17:48:51.574Z,8.40
2022-09-25T17:53:47.441Z,8.40
2022-09-25T17:58:46.436Z,8.50
2022-09-25T18:03:46.232Z,8.90
2022-09-25T18:08:46.133Z,8.20
2022-09-25T18:13:46.528Z,8.20
2022-09-25T18:18:46.024Z,9.10
2022-09-25T18:23:45.986Z,9.60
2022-09-25T18:28:45.877Z,9.80
2022-09-25T18:33:47.523Z,9.40
2022-09-25T18:38:45.801Z,9.50
2022-09-25T18:43:45.686Z,9.40
2022-09-25T18:48:45.668Z,10.20
2022-09-25T18:53:45.543Z,9.90
2022-09-25T18:58:45.497Z,10.40
2022-09-25T19:03:45.422Z,10.70
2022-09-25T19:08:45.441Z,10.90
2022-09-25T19:13:45.400Z,11.10
2022-09-25T19:18:45.570Z,10.90
2022-09-25T19:23:45.480Z,11.00
2022-09-25T19:28:45.077Z,10.30
2022-09-25T19:33:45.112Z,11.10
2022-09-25T19:38:45.472Z,12.00
2022-09-25T19:43:45.243Z,11.80
2022-09-25T19:48:46.042Z,10.90
2022-09-25T19:53:44.821Z,10.40
2022-09-25T19:58:44.796Z,11.10
2022-09-25T20:03:44.626Z,11.50
2022-09-25T20:08:44.581Z,11.30
2022-09-25T20:13:44.523Z,11.90
2022-09-25T20:18:44.616Z,14.80
2022-09-25T20:23:44.774Z,14.10
2022-09-25T20:28:44.475Z,12.40
2022-09-25T20:33:44.293Z,11.20
2022-09-25T20:38:44.181Z,12.70
2022-09-25T20:43:44.170Z,11.90
2022-09-25T20:48:44.192Z,12.50
2022-09-25T20:53:44.103Z,12.60
2022-09-25T20:58:43.964Z,13.20
2022-09-25T21:03:43.986Z,12.60
2022-09-25T21:08:44.360Z,12.00
2022-09-25T21:13:43.955Z,12.20
2022-09-25T21:18:43.662Z,12.80
2022-09-25T21:23:43.574Z,12.70
2022-09-25T21:28:43.704Z,12.50
2022-09-25T21:33:43.467Z,13.20
2022-09-25T21:38:43.640Z,12.40
2022-09-25T21:43:43.444Z,13.10
2022-09-25T21:48:43.241Z,12.90
2022-09-25T21:53:43.283Z,14.00
2022-09-25T21:58:43.222Z,12.70
2022-09-25T22:03:43.144Z,14.00
2022-09-25T22:08:43.099Z,13.00
2022-09-25T22:13:43.023Z,13.50
2022-09-25T22:18:42.844Z,13.90
2022-09-25T22:23:42.764Z,13.60
2022-09-25T22:28:42.721Z,11.60
2022-09-25T22:33:42.902Z,10.90
2022-09-25T22:38:42.561Z,12.20
2022-09-25T22:43:42.484Z,12.30
2022-09-25T22:48:42.443Z,12.40
2022-09-25T22:53:42.439Z,12.10
2022-09-25T22:58:42.315Z,11.40
2022-09-25T23:03:42.338Z,12.30
2022-09-25T23:08:42.362Z,12.80
2022-09-25T23:13:42.313Z,12.90
2022-09-25T23:18:42.064Z,11.30
2022-09-25T23:23:42.080Z,10.10
2022-09-25T23:28:41.942Z,11.40
2022-09-25T23:33:41.892Z,13.00
2022-09-25T23:38:41.934Z,10.70
2022-09-25T23:43:41.696Z,9.10
2022-09-25T23:48:41.636Z,10.40
2022-09-25T23:53:41.568Z,9.90
2022-09-25T23:58:41.499Z,8.90
